sensor_id;sensor_type;location;lat;lon;timestamp;P1;durP1;ratioP1;P2;durP2;ratioP2
13720;SDS011;6932;51.438;5.470;2023-02-22T01:00:37;19.63;;;12.57;;
13720;SDS011;6932;51.438;5.470;2023-02-22T01:03:07;20.43;;;13.00;;
13720;SDS011;6932;51.438;5.470;2023-02-22T01:05:35;22.03;;;12.17;;
13720;SDS011;6932;51.438;5.470;2023-02-22T01:08:02;20.63;;;12.47;;
13720;SDS011;6932;51.438;5.470;2023-02-22T01:10:34;20.57;;;11.73;;
13720;SDS011;6932;51.438;5.470;2023-02-22T01:13:01;20.50;;;12.70;;
13720;SDS011;6932;51.438;5.470;2023-02-22T01:15:33;21.07;;;12.67;;
13720;SDS011;6932;51.438;5.470;2023-02-22T01:18:02;19.67;;;12.07;;
13720;SDS011;6932;51.438;5.470;2023-02-22T01:20:29;20.80;;;13.27;;
13720;SDS011;6932;51.438;5.470;2023-02-22T01:22:57;22.33;;;13.50;;
13720;SDS011;6932;51.438;5.470;2023-02-22T01:25:29;23.20;;;14.10;;
13720;SDS011;6932;51.438;5.470;2023-02-22T01:27:58;22.33;;;13.77;;
13720;SDS011;6932;51.438;5.470;2023-02-22T01:30:30;21.43;;;13.57;;
13720;SDS011;6932;51.438;5.470;2023-02-22T01:32:58;20.63;;;13.17;;
13720;SDS011;6932;51.438;5.470;2023-02-22T01:35:30;20.67;;;12.83;;
13720;SDS011;6932;51.438;5.470;2023-02-22T01:37:59;20.10;;;12.80;;
13720;SDS011;6932;51.438;5.470;2023-02-22T01:40:30;19.00;;;12.87;;
13720;SDS011;6932;51.438;5.470;2023-02-22T01:43:00;20.40;;;11.67;;
13720;SDS011;6932;51.438;5.470;2023-02-22T01:48:02;18.87;;;12.27;;
13720;SDS011;6932;51.438;5.470;2023-02-22T01:50:38;18.17;;;11.70;;
13720;SDS011;6932;51.438;5.470;2023-02-22T01:53:10;18.50;;;11.47;;
13720;SDS011;6932;51.438;5.470;2023-02-22T01:55:41;20.27;;;12.57;;
13720;SDS011;6932;51.438;5.470;2023-02-22T01:58:08;23.47;;;12.63;;
13720;SDS011;6932;51.438;5.470;2023-02-22T02:00:35;20.83;;;13.10;;
13720;SDS011;6932;51.438;5.470;2023-02-22T02:03:05;20.27;;;12.80;;
13720;SDS011;6932;51.438;5.470;2023-02-22T02:05:38;21.43;;;13.60;;
13720;SDS011;6932;51.438;5.470;2023-02-22T02:08:11;20.20;;;13.07;;
13720;SDS011;6932;51.438;5.470;2023-02-22T02:10:54;23.33;;;13.33;;
13720;SDS011;6932;51.438;5.470;2023-02-22T02:13:22;21.73;;;13.50;;
13720;SDS011;6932;51.438;5.470;2023-02-22T02:15:52;23.93;;;13.63;;
13720;SDS011;6932;51.438;5.470;2023-02-22T02:18:19;21.90;;;13.53;;
13720;SDS011;6932;51.438;5.470;2023-02-22T02:21:12;20.97;;;13.33;;
13720;SDS011;6932;51.438;5.470;2023-02-22T02:32:50;21.30;;;12.47;;
13720;SDS011;6932;51.438;5.470;2023-02-22T02:38:11;19.40;;;12.00;;
13720;SDS011;6932;51.438;5.470;2023-02-22T02:41:14;18.20;;;11.60;;
13720;SDS011;6932;51.438;5.470;2023-02-22T02:43:52;21.50;;;13.00;;
13720;SDS011;6932;51.438;5.470;2023-02-22T02:49:46;22.23;;;12.43;;
13720;SDS011;6932;51.438;5.470;2023-02-22T02:52:25;19.20;;;12.40;;
13720;SDS011;6932;51.438;5.470;2023-02-22T02:54:54;19.57;;;11.27;;
13720;SDS011;6932;51.438;5.470;2023-02-22T02:57:21;17.90;;;11.13;;
13720;SDS011;6932;51.438;5.470;2023-02-22T02:59:48;17.87;;;11.63;;
13720;SDS011;6932;51.438;5.470;2023-02-22T03:08:13;19.67;;;12.13;;
13720;SDS011;6932;51.438;5.470;2023-02-22T03:11:05;19.23;;;11.47;;
13720;SDS011;6932;51.438;5.470;2023-02-22T03:22:25;19.80;;;12.27;;
13720;SDS011;6932;51.438;5.470;2023-02-22T03:25:09;18.53;;;11.53;;
13720;SDS011;6932;51.438;5.470;2023-02-22T03:27:59;18.07;;;11.23;;
13720;SDS011;6932;51.438;5.470;2023-02-22T03:30:46;18.67;;;11.20;;
13720;SDS011;6932;51.438;5.470;2023-02-22T03:33:16;18.53;;;11.57;;
13720;SDS011;6932;51.438;5.470;2023-02-22T03:36:00;18.90;;;12.23;;
13720;SDS011;6932;51.438;5.470;2023-02-22T03:38:36;17.70;;;11.33;;
13720;SDS011;6932;51.438;5.470;2023-02-22T03:41:05;19.60;;;11.33;;
13720;SDS011;6932;51.438;5.470;2023-02-22T03:43:39;18.63;;;12.17;;
13720;SDS011;6932;51.438;5.470;2023-02-22T03:46:12;17.60;;;11.07;;
13720;SDS011;6932;51.438;5.470;2023-02-22T03:51:29;20.17;;;11.80;;
13720;SDS011;6932;51.438;5.470;2023-02-22T03:53:55;18.27;;;11.57;;
13720;SDS011;6932;51.438;5.470;2023-02-22T03:56:22;18.47;;;12.23;;
13720;SDS011;6932;51.438;5.470;2023-02-22T03:59:00;18.97;;;11.73;;
13720;SDS011;6932;51.438;5.470;2023-02-22T04:01:32;19.07;;;12.30;;
13720;SDS011;6932;51.438;5.470;2023-02-22T04:03:58;22.17;;;13.03;;
13720;SDS011;6932;51.438;5.470;2023-02-22T04:06:24;19.27;;;12.47;;
13720;SDS011;6932;51.438;5.470;2023-02-22T04:08:51;22.37;;;13.23;;
13720;SDS011;6932;51.438;5.470;2023-02-22T04:11:17;20.60;;;13.37;;
13720;SDS011;6932;51.438;5.470;2023-02-22T04:13:43;18.93;;;12.27;;
13720;SDS011;6932;51.438;5.470;2023-02-22T04:16:08;20.10;;;11.73;;
13720;SDS011;6932;51.438;5.470;2023-02-22T04:18:34;18.03;;;11.90;;
13720;SDS011;6932;51.438;5.470;2023-02-22T04:21:00;19.73;;;11.83;;
13720;SDS011;6932;51.438;5.470;2023-02-22T04:23:26;20.53;;;12.20;;
13720;SDS011;6932;51.438;5.470;2023-02-22T04:25:52;18.20;;;11.83;;
13720;SDS011;6932;51.438;5.470;2023-02-22T04:28:18;20.00;;;11.97;;
13720;SDS011;6932;51.438;5.470;2023-02-22T04:30:44;19.20;;;12.00;;
13720;SDS011;6932;51.438;5.470;2023-02-22T04:33:10;21.77;;;13.00;;
13720;SDS011;6932;51.438;5.470;2023-02-22T04:35:37;18.60;;;11.77;;
13720;SDS011;6932;51.438;5.470;2023-02-22T04:38:03;19.50;;;11.70;;
13720;SDS011;6932;51.438;5.470;2023-02-22T04:40:29;20.87;;;11.27;;
13720;SDS011;6932;51.438;5.470;2023-02-22T04:42:55;19.27;;;11.93;;
13720;SDS011;6932;51.438;5.470;2023-02-22T04:45:21;19.30;;;12.13;;
13720;SDS011;6932;51.438;5.470;2023-02-22T04:47:47;19.23;;;11.77;;
13720;SDS011;6932;51.438;5.470;2023-02-22T04:50:13;18.47;;;11.77;;
13720;SDS011;6932;51.438;5.470;2023-02-22T04:52:40;17.87;;;11.33;;
13720;SDS011;6932;51.438;5.470;2023-02-22T04:55:06;17.00;;;10.70;;
13720;SDS011;6932;51.438;5.470;2023-02-22T04:57:33;18.30;;;11.70;;
13720;SDS011;6932;51.438;5.470;2023-02-22T04:59:59;17.03;;;10.60;;
13720;SDS011;6932;51.438;5.470;2023-02-22T05:02:25;17.23;;;11.13;;
13720;SDS011;6932;51.438;5.470;2023-02-22T05:04:51;17.50;;;11.60;;
13720;SDS011;6932;51.438;5.470;2023-02-22T05:07:17;17.60;;;9.90;;
13720;SDS011;6932;51.438;5.470;2023-02-22T05:09:43;17.83;;;10.07;;
13720;SDS011;6932;51.438;5.470;2023-02-22T05:12:08;17.43;;;10.50;;
13720;SDS011;6932;51.438;5.470;2023-02-22T05:14:34;17.13;;;10.87;;
13720;SDS011;6932;51.438;5.470;2023-02-22T05:17:00;17.10;;;10.77;;
13720;SDS011;6932;51.438;5.470;2023-02-22T05:19:27;17.00;;;10.90;;
13720;SDS011;6932;51.438;5.470;2023-02-22T05:21:53;17.20;;;11.00;;
13720;SDS011;6932;51.438;5.470;2023-02-22T05:24:20;16.73;;;10.47;;
13720;SDS011;6932;51.438;5.470;2023-02-22T05:26:46;17.83;;;10.83;;
13720;SDS011;6932;51.438;5.470;2023-02-22T05:29:12;16.63;;;10.50;;
13720;SDS011;6932;51.438;5.470;2023-02-22T05:31:38;16.77;;;10.83;;
13720;SDS011;6932;51.438;5.470;2023-02-22T05:34:05;17.70;;;11.03;;
13720;SDS011;6932;51.438;5.470;2023-02-22T05:36:31;15.83;;;10.37;;
13720;SDS011;6932;51.438;5.470;2023-02-22T05:38:57;16.33;;;10.50;;
13720;SDS011;6932;51.438;5.470;2023-02-22T05:41:23;17.63;;;10.47;;
13720;SDS011;6932;51.438;5.470;2023-02-22T05:43:49;16.60;;;10.10;;
13720;SDS011;6932;51.438;5.470;2023-02-22T05:46:14;17.17;;;10.73;;
13720;SDS011;6932;51.438;5.470;2023-02-22T05:48:40;16.00;;;10.20;;
13720;SDS011;6932;51.438;5.470;2023-02-22T05:51:06;16.63;;;10.30;;
13720;SDS011;6932;51.438;5.470;2023-02-22T05:53:33;16.33;;;10.23;;
13720;SDS011;6932;51.438;5.470;2023-02-22T05:55:59;17.63;;;10.87;;
13720;SDS011;6932;51.438;5.470;2023-02-22T05:58:25;17.40;;;10.70;;
13720;SDS011;6932;51.438;5.470;2023-02-22T06:00:51;16.80;;;10.77;;
13720;SDS011;6932;51.438;5.470;2023-02-22T06:03:17;17.37;;;10.93;;
13720;SDS011;6932;51.438;5.470;2023-02-22T06:05:43;17.97;;;11.47;;
13720;SDS011;6932;51.438;5.470;2023-02-22T06:08:09;18.90;;;11.43;;
13720;SDS011;6932;51.438;5.470;2023-02-22T06:10:34;19.37;;;11.17;;
13720;SDS011;6932;51.438;5.470;2023-02-22T06:13:00;17.97;;;11.27;;
13720;SDS011;6932;51.438;5.470;2023-02-22T06:15:27;16.37;;;10.27;;
13720;SDS011;6932;51.438;5.470;2023-02-22T06:17:54;17.43;;;11.27;;
13720;SDS011;6932;51.438;5.470;2023-02-22T06:20:22;17.33;;;11.17;;
13720;SDS011;6932;51.438;5.470;2023-02-22T06:22:51;19.43;;;11.77;;
13720;SDS011;6932;51.438;5.470;2023-02-22T06:25:23;18.20;;;11.40;;
13720;SDS011;6932;51.438;5.470;2023-02-22T06:27:57;17.60;;;11.13;;
13720;SDS011;6932;51.438;5.470;2023-02-22T06:30:25;18.77;;;11.43;;
13720;SDS011;6932;51.438;5.470;2023-02-22T06:32:52;18.80;;;11.47;;
13720;SDS011;6932;51.438;5.470;2023-02-22T06:35:18;19.63;;;11.60;;
13720;SDS011;6932;51.438;5.470;2023-02-22T06:37:44;19.53;;;11.40;;
13720;SDS011;6932;51.438;5.470;2023-02-22T06:40:11;18.80;;;11.67;;
13720;SDS011;6932;51.438;5.470;2023-02-22T06:42:38;17.93;;;11.33;;
13720;SDS011;6932;51.438;5.470;2023-02-22T06:45:05;17.70;;;10.80;;
13720;SDS011;6932;51.438;5.470;2023-02-22T06:47:32;17.27;;;11.07;;
13720;SDS011;6932;51.438;5.470;2023-02-22T06:49:58;18.70;;;11.53;;
13720;SDS011;6932;51.438;5.470;2023-02-22T06:52:24;18.37;;;11.67;;
13720;SDS011;6932;51.438;5.470;2023-02-22T06:54:50;18.43;;;10.97;;
13720;SDS011;6932;51.438;5.470;2023-02-22T06:57:17;18.63;;;12.27;;
13720;SDS011;6932;51.438;5.470;2023-02-22T06:59:43;17.00;;;10.63;;
13720;SDS011;6932;51.438;5.470;2023-02-22T07:02:10;17.37;;;11.10;;
13720;SDS011;6932;51.438;5.470;2023-02-22T07:04:37;16.73;;;10.67;;
13720;SDS011;6932;51.438;5.470;2023-02-22T07:07:03;18.10;;;11.20;;
13720;SDS011;6932;51.438;5.470;2023-02-22T07:09:29;19.10;;;11.03;;
13720;SDS011;6932;51.438;5.470;2023-02-22T07:11:55;19.10;;;11.10;;
13720;SDS011;6932;51.438;5.470;2023-02-22T07:14:21;18.33;;;11.40;;
13720;SDS011;6932;51.438;5.470;2023-02-22T07:16:47;18.37;;;10.50;;
13720;SDS011;6932;51.438;5.470;2023-02-22T07:19:13;18.10;;;10.90;;
13720;SDS011;6932;51.438;5.470;2023-02-22T07:21:38;17.73;;;10.80;;
13720;SDS011;6932;51.438;5.470;2023-02-22T07:24:04;17.23;;;10.27;;
13720;SDS011;6932;51.438;5.470;2023-02-22T07:26:30;17.90;;;11.50;;
13720;SDS011;6932;51.438;5.470;2023-02-22T07:29:04;16.37;;;10.37;;
13720;SDS011;6932;51.438;5.470;2023-02-22T07:31:34;15.60;;;9.80;;
13720;SDS011;6932;51.438;5.470;2023-02-22T07:34:03;17.03;;;9.60;;
13720;SDS011;6932;51.438;5.470;2023-02-22T07:36:29;15.20;;;9.77;;
13720;SDS011;6932;51.438;5.470;2023-02-22T07:38:55;16.87;;;10.20;;
13720;SDS011;6932;51.438;5.470;2023-02-22T07:41:20;15.80;;;9.90;;
13720;SDS011;6932;51.438;5.470;2023-02-22T07:43:47;16.43;;;9.83;;
13720;SDS011;6932;51.438;5.470;2023-02-22T07:46:12;16.83;;;9.97;;
13720;SDS011;6932;51.438;5.470;2023-02-22T07:48:38;16.43;;;10.03;;
13720;SDS011;6932;51.438;5.470;2023-02-22T07:51:04;16.70;;;9.70;;
13720;SDS011;6932;51.438;5.470;2023-02-22T07:53:31;16.20;;;10.33;;
13720;SDS011;6932;51.438;5.470;2023-02-22T07:55:58;15.93;;;9.50;;
13720;SDS011;6932;51.438;5.470;2023-02-22T07:58:26;15.83;;;9.90;;
13720;SDS011;6932;51.438;5.470;2023-02-22T08:00:56;15.93;;;9.57;;
13720;SDS011;6932;51.438;5.470;2023-02-22T08:03:23;16.70;;;10.03;;
13720;SDS011;6932;51.438;5.470;2023-02-22T08:05:54;15.73;;;9.83;;
13720;SDS011;6932;51.438;5.470;2023-02-22T08:08:22;18.10;;;9.93;;
13720;SDS011;6932;51.438;5.470;2023-02-22T08:10:49;17.10;;;10.50;;
13720;SDS011;6932;51.438;5.470;2023-02-22T08:13:16;17.10;;;10.50;;
13720;SDS011;6932;51.438;5.470;2023-02-22T08:15:43;16.33;;;10.10;;
13720;SDS011;6932;51.438;5.470;2023-02-22T08:18:11;15.23;;;9.37;;
13720;SDS011;6932;51.438;5.470;2023-02-22T08:20:43;16.67;;;10.57;;
13720;SDS011;6932;51.438;5.470;2023-02-22T08:23:12;16.10;;;10.07;;
13720;SDS011;6932;51.438;5.470;2023-02-22T08:25:39;17.67;;;10.20;;
13720;SDS011;6932;51.438;5.470;2023-02-22T08:28:06;16.07;;;10.57;;
13720;SDS011;6932;51.438;5.470;2023-02-22T08:30:36;16.07;;;10.07;;
13720;SDS011;6932;51.438;5.470;2023-02-22T08:33:04;16.73;;;10.43;;
13720;SDS011;6932;51.438;5.470;2023-02-22T08:35:30;16.70;;;10.57;;
13720;SDS011;6932;51.438;5.470;2023-02-22T08:37:58;16.27;;;10.13;;
13720;SDS011;6932;51.438;5.470;2023-02-22T08:40:31;17.07;;;10.57;;
13720;SDS011;6932;51.438;5.470;2023-02-22T08:43:01;16.60;;;10.10;;
13720;SDS011;6932;51.438;5.470;2023-02-22T08:45:27;16.43;;;9.93;;
13720;SDS011;6932;51.438;5.470;2023-02-22T08:47:53;17.63;;;10.90;;
13720;SDS011;6932;51.438;5.470;2023-02-22T08:50:23;16.50;;;10.30;;
13720;SDS011;6932;51.438;5.470;2023-02-22T08:52:53;16.60;;;10.20;;
13720;SDS011;6932;51.438;5.470;2023-02-22T08:55:24;15.53;;;9.67;;
13720;SDS011;6932;51.438;5.470;2023-02-22T08:57:51;14.43;;;9.30;;
13720;SDS011;6932;51.438;5.470;2023-02-22T09:00:18;16.10;;;10.10;;
13720;SDS011;6932;51.438;5.470;2023-02-22T09:02:48;15.50;;;9.77;;
13720;SDS011;6932;51.438;5.470;2023-02-22T09:05:15;15.60;;;9.63;;
13720;SDS011;6932;51.438;5.470;2023-02-22T09:07:41;14.10;;;9.17;;
13720;SDS011;6932;51.438;5.470;2023-02-22T09:10:15;14.87;;;9.40;;
13720;SDS011;6932;51.438;5.470;2023-02-22T09:12:48;15.83;;;9.90;;
13720;SDS011;6932;51.438;5.470;2023-02-22T09:15:15;14.30;;;9.40;;
13720;SDS011;6932;51.438;5.470;2023-02-22T09:17:42;15.30;;;9.70;;
13720;SDS011;6932;51.438;5.470;2023-02-22T09:20:09;14.47;;;9.57;;
13720;SDS011;6932;51.438;5.470;2023-02-22T09:22:36;15.10;;;9.50;;
13720;SDS011;6932;51.438;5.470;2023-02-22T09:25:03;14.00;;;9.00;;
13720;SDS011;6932;51.438;5.470;2023-02-22T09:27:30;14.77;;;9.60;;
13720;SDS011;6932;51.438;5.470;2023-02-22T09:29:56;14.83;;;9.33;;
13720;SDS011;6932;51.438;5.470;2023-02-22T09:32:22;16.07;;;9.77;;
13720;SDS011;6932;51.438;5.470;2023-02-22T09:34:51;14.27;;;9.47;;
13720;SDS011;6932;51.438;5.470;2023-02-22T09:37:18;14.50;;;8.97;;
13720;SDS011;6932;51.438;5.470;2023-02-22T09:39:44;13.47;;;8.77;;
13720;SDS011;6932;51.438;5.470;2023-02-22T09:44:58;14.00;;;8.93;;
13720;SDS011;6932;51.438;5.470;2023-02-22T09:47:40;13.77;;;8.60;;
13720;SDS011;6932;51.438;5.470;2023-02-22T09:50:30;14.17;;;9.23;;
13720;SDS011;6932;51.438;5.470;2023-02-22T09:55:53;14.70;;;8.87;;
13720;SDS011;6932;51.438;5.470;2023-02-22T09:58:32;13.83;;;8.93;;
13720;SDS011;6932;51.438;5.470;2023-02-22T10:03:54;13.90;;;8.90;;
13720;SDS011;6932;51.438;5.470;2023-02-22T10:06:25;13.43;;;8.80;;
13720;SDS011;6932;51.438;5.470;2023-02-22T10:08:53;13.50;;;8.70;;
13720;SDS011;6932;51.438;5.470;2023-02-22T10:14:27;13.17;;;8.23;;
13720;SDS011;6932;51.438;5.470;2023-02-22T10:17:27;14.30;;;8.47;;
13720;SDS011;6932;51.438;5.470;2023-02-22T10:23:23;13.00;;;8.40;;
13720;SDS011;6932;51.438;5.470;2023-02-22T10:28:48;13.43;;;8.30;;
13720;SDS011;6932;51.438;5.470;2023-02-22T10:31:50;12.67;;;8.10;;
13720;SDS011;6932;51.438;5.470;2023-02-22T10:34:28;14.17;;;8.40;;
13720;SDS011;6932;51.438;5.470;2023-02-22T10:37:48;16.53;;;9.33;;
13720;SDS011;6932;51.438;5.470;2023-02-22T10:40:15;12.43;;;7.83;;
13720;SDS011;6932;51.438;5.470;2023-02-22T10:42:46;13.40;;;7.83;;
13720;SDS011;6932;51.438;5.470;2023-02-22T10:45:20;11.50;;;7.40;;
13720;SDS011;6932;51.438;5.470;2023-02-22T12:21:23;12.20;;;7.87;;
13720;SDS011;6932;51.438;5.470;2023-02-22T12:24:05;13.50;;;7.70;;
13720;SDS011;6932;51.438;5.470;2023-02-22T12:26:42;12.90;;;8.27;;
13720;SDS011;6932;51.438;5.470;2023-02-22T12:32:32;12.73;;;8.20;;
13720;SDS011;6932;51.438;5.470;2023-02-22T12:35:27;12.47;;;8.30;;
13720;SDS011;6932;51.438;5.470;2023-02-22T12:46:17;13.20;;;8.70;;
13720;SDS011;6932;51.438;5.470;2023-02-22T12:48:59;15.77;;;9.07;;
13720;SDS011;6932;51.438;5.470;2023-02-22T12:52:12;12.93;;;8.73;;
13720;SDS011;6932;51.438;5.470;2023-02-22T12:58:29;14.23;;;8.60;;
13720;SDS011;6932;51.438;5.470;2023-02-22T13:01:12;14.63;;;8.80;;
13720;SDS011;6932;51.438;5.470;2023-02-22T13:03:44;12.90;;;8.60;;
13720;SDS011;6932;51.438;5.470;2023-02-22T13:06:35;12.07;;;8.60;;
13720;SDS011;6932;51.438;5.470;2023-02-22T13:22:05;13.53;;;9.20;;
13720;SDS011;6932;51.438;5.470;2023-02-22T13:33:18;14.73;;;9.37;;
13720;SDS011;6932;51.438;5.470;2023-02-22T13:54:16;15.13;;;9.63;;
13720;SDS011;6932;51.438;5.470;2023-02-22T13:57:16;13.90;;;9.70;;
13720;SDS011;6932;51.438;5.470;2023-02-22T14:02:55;15.07;;;10.63;;
13720;SDS011;6932;51.438;5.470;2023-02-22T14:13:11;16.37;;;10.53;;
13720;SDS011;6932;51.438;5.470;2023-02-22T14:18:27;15.83;;;10.50;;
13720;SDS011;6932;51.438;5.470;2023-02-22T14:21:15;14.63;;;10.73;;
13720;SDS011;6932;51.438;5.470;2023-02-22T14:23:50;16.70;;;11.67;;
13720;SDS011;6932;51.438;5.470;2023-02-22T14:26:33;15.37;;;10.97;;
13720;SDS011;6932;51.438;5.470;2023-02-22T14:42:30;16.47;;;11.37;;
13720;SDS011;6932;51.438;5.470;2023-02-22T14:56:06;17.30;;;12.23;;
13720;SDS011;6932;51.438;5.470;2023-02-22T14:58:48;16.23;;;11.93;;
13720;SDS011;6932;51.438;5.470;2023-02-22T15:01:35;17.20;;;11.33;;
13720;SDS011;6932;51.438;5.470;2023-02-22T15:07:06;16.53;;;12.00;;
13720;SDS011;6932;51.438;5.470;2023-02-22T15:09:45;16.53;;;11.60;;
13720;SDS011;6932;51.438;5.470;2023-02-22T15:12:46;16.60;;;11.83;;
13720;SDS011;6932;51.438;5.470;2023-02-22T15:15:17;17.43;;;12.17;;
13720;SDS011;6932;51.438;5.470;2023-02-22T15:17:56;18.27;;;12.50;;
13720;SDS011;6932;51.438;5.470;2023-02-22T15:20:23;18.37;;;12.63;;
13720;SDS011;6932;51.438;5.470;2023-02-22T15:22:49;16.63;;;11.93;;
13720;SDS011;6932;51.438;5.470;2023-02-22T15:25:26;16.90;;;12.33;;
13720;SDS011;6932;51.438;5.470;2023-02-22T15:27:58;16.53;;;11.77;;
13720;SDS011;6932;51.438;5.470;2023-02-22T15:30:33;16.87;;;12.63;;
13720;SDS011;6932;51.438;5.470;2023-02-22T15:33:12;17.90;;;12.87;;
13720;SDS011;6932;51.438;5.470;2023-02-22T15:35:54;18.43;;;13.13;;
13720;SDS011;6932;51.438;5.470;2023-02-22T15:38:26;18.47;;;12.93;;
13720;SDS011;6932;51.438;5.470;2023-02-22T15:41:04;18.33;;;13.90;;
13720;SDS011;6932;51.438;5.470;2023-02-22T15:43:37;17.37;;;13.30;;
13720;SDS011;6932;51.438;5.470;2023-02-22T15:46:04;20.70;;;14.23;;
13720;SDS011;6932;51.438;5.470;2023-02-22T15:48:31;19.87;;;14.63;;
13720;SDS011;6932;51.438;5.470;2023-02-22T15:51:09;18.53;;;14.27;;
13720;SDS011;6932;51.438;5.470;2023-02-22T15:53:40;19.80;;;14.13;;
13720;SDS011;6932;51.438;5.470;2023-02-22T15:56:12;21.03;;;15.97;;
13720;SDS011;6932;51.438;5.470;2023-02-22T15:59:02;21.37;;;15.00;;
13720;SDS011;6932;51.438;5.470;2023-02-22T16:01:37;21.13;;;15.60;;
13720;SDS011;6932;51.438;5.470;2023-02-22T16:04:06;20.13;;;14.90;;
13720;SDS011;6932;51.438;5.470;2023-02-22T16:06:46;19.60;;;14.70;;
13720;SDS011;6932;51.438;5.470;2023-02-22T16:11:50;21.83;;;16.07;;
13720;SDS011;6932;51.438;5.470;2023-02-22T16:17:20;21.10;;;16.67;;
13720;SDS011;6932;51.438;5.470;2023-02-22T16:22:36;20.90;;;15.87;;
13720;SDS011;6932;51.438;5.470;2023-02-22T16:27:50;22.13;;;16.53;;
13720;SDS011;6932;51.438;5.470;2023-02-22T16:32:56;22.87;;;16.90;;
13720;SDS011;6932;51.438;5.470;2023-02-22T16:35:26;24.90;;;17.30;;
13720;SDS011;6932;51.438;5.470;2023-02-22T16:37:54;22.77;;;16.90;;
13720;SDS011;6932;51.438;5.470;2023-02-22T16:47:54;23.93;;;17.40;;
13720;SDS011;6932;51.438;5.470;2023-02-22T16:50:20;23.53;;;17.50;;
13720;SDS011;6932;51.438;5.470;2023-02-22T16:52:48;22.40;;;17.10;;
13720;SDS011;6932;51.438;5.470;2023-02-22T16:58:05;23.60;;;17.33;;
13720;SDS011;6932;51.438;5.470;2023-02-22T17:00:31;25.10;;;17.60;;
13720;SDS011;6932;51.438;5.470;2023-02-22T17:02:58;24.23;;;18.63;;
13720;SDS011;6932;51.438;5.470;2023-02-22T17:05:30;23.27;;;18.10;;
13720;SDS011;6932;51.438;5.470;2023-02-22T17:08:02;24.73;;;18.97;;
13720;SDS011;6932;51.438;5.470;2023-02-22T17:10:28;23.30;;;18.57;;
13720;SDS011;6932;51.438;5.470;2023-02-22T17:12:54;25.30;;;19.83;;
13720;SDS011;6932;51.438;5.470;2023-02-22T17:15:27;28.93;;;19.83;;
13720;SDS011;6932;51.438;5.470;2023-02-22T17:17:57;25.63;;;20.23;;
13720;SDS011;6932;51.438;5.470;2023-02-22T17:20:23;27.33;;;20.40;;
13720;SDS011;6932;51.438;5.470;2023-02-22T17:22:59;26.43;;;20.27;;
13720;SDS011;6932;51.438;5.470;2023-02-22T17:28:03;27.07;;;21.00;;
13720;SDS011;6932;51.438;5.470;2023-02-22T17:30:30;27.57;;;21.33;;
13720;SDS011;6932;51.438;5.470;2023-02-22T17:32:58;29.20;;;21.47;;
13720;SDS011;6932;51.438;5.470;2023-02-22T17:35:31;27.53;;;21.67;;
13720;SDS011;6932;51.438;5.470;2023-02-22T17:38:03;28.03;;;22.10;;
13720;SDS011;6932;51.438;5.470;2023-02-22T17:40:31;28.93;;;22.73;;
13720;SDS011;6932;51.438;5.470;2023-02-22T17:42:58;28.20;;;22.00;;
13720;SDS011;6932;51.438;5.470;2023-02-22T17:45:26;29.30;;;22.73;;
13720;SDS011;6932;51.438;5.470;2023-02-22T17:47:53;29.03;;;22.93;;
13720;SDS011;6932;51.438;5.470;2023-02-22T17:50:19;30.93;;;23.93;;
13720;SDS011;6932;51.438;5.470;2023-02-22T17:52:47;29.90;;;22.77;;
13720;SDS011;6932;51.438;5.470;2023-02-22T17:55:17;28.57;;;22.73;;
13720;SDS011;6932;51.438;5.470;2023-02-22T17:57:46;28.97;;;22.23;;
13720;SDS011;6932;51.438;5.470;2023-02-22T18:00:22;28.83;;;23.27;;
13720;SDS011;6932;51.438;5.470;2023-02-22T18:02:57;30.23;;;22.90;;
13720;SDS011;6932;51.438;5.470;2023-02-22T18:05:37;30.23;;;23.47;;
13720;SDS011;6932;51.438;5.470;2023-02-22T18:08:10;29.27;;;23.00;;
13720;SDS011;6932;51.438;5.470;2023-02-22T18:10:36;30.30;;;23.13;;
13720;SDS011;6932;51.438;5.470;2023-02-22T18:13:02;29.83;;;23.43;;
13720;SDS011;6932;51.438;5.470;2023-02-22T18:15:28;32.43;;;24.10;;
13720;SDS011;6932;51.438;5.470;2023-02-22T18:17:59;28.90;;;23.53;;
13720;SDS011;6932;51.438;5.470;2023-02-22T18:20:27;29.37;;;23.17;;
13720;SDS011;6932;51.438;5.470;2023-02-22T18:23:03;30.20;;;23.53;;
13720;SDS011;6932;51.438;5.470;2023-02-22T18:25:35;30.67;;;23.87;;
13720;SDS011;6932;51.438;5.470;2023-02-22T18:28:05;32.80;;;24.93;;
13720;SDS011;6932;51.438;5.470;2023-02-22T18:30:33;32.63;;;24.93;;
13720;SDS011;6932;51.438;5.470;2023-02-22T18:33:01;35.23;;;24.03;;
13720;SDS011;6932;51.438;5.470;2023-02-22T18:35:28;29.93;;;23.50;;
13720;SDS011;6932;51.438;5.470;2023-02-22T18:37:54;32.30;;;23.37;;
13720;SDS011;6932;51.438;5.470;2023-02-22T18:40:20;33.83;;;24.03;;
13720;SDS011;6932;51.438;5.470;2023-02-22T18:42:47;32.77;;;24.20;;
13720;SDS011;6932;51.438;5.470;2023-02-22T18:45:13;34.47;;;25.40;;
13720;SDS011;6932;51.438;5.470;2023-02-22T18:47:40;32.80;;;24.23;;
13720;SDS011;6932;51.438;5.470;2023-02-22T18:50:10;32.97;;;24.97;;
13720;SDS011;6932;51.438;5.470;2023-02-22T18:52:37;35.03;;;26.20;;
13720;SDS011;6932;51.438;5.470;2023-02-22T18:55:11;35.43;;;26.17;;
13720;SDS011;6932;51.438;5.470;2023-02-22T18:57:47;35.97;;;26.00;;
13720;SDS011;6932;51.438;5.470;2023-02-22T19:00:17;33.43;;;24.63;;
13720;SDS011;6932;51.438;5.470;2023-02-22T19:02:53;35.43;;;25.13;;
13720;SDS011;6932;51.438;5.470;2023-02-22T19:05:21;36.27;;;25.27;;
13720;SDS011;6932;51.438;5.470;2023-02-22T19:07:48;37.57;;;25.90;;
13720;SDS011;6932;51.438;5.470;2023-02-22T19:10:14;37.37;;;26.17;;
13720;SDS011;6932;51.438;5.470;2023-02-22T19:12:40;35.43;;;25.53;;
13720;SDS011;6932;51.438;5.470;2023-02-22T19:15:06;36.43;;;25.43;;
13720;SDS011;6932;51.438;5.470;2023-02-22T19:17:33;34.97;;;25.30;;
13720;SDS011;6932;51.438;5.470;2023-02-22T19:20:00;36.10;;;26.20;;
13720;SDS011;6932;51.438;5.470;2023-02-22T19:22:30;38.80;;;26.87;;
13720;SDS011;6932;51.438;5.470;2023-02-22T19:24:56;38.23;;;26.20;;
13720;SDS011;6932;51.438;5.470;2023-02-22T19:27:25;38.20;;;26.23;;
13720;SDS011;6932;51.438;5.470;2023-02-22T19:29:55;38.03;;;26.07;;
13720;SDS011;6932;51.438;5.470;2023-02-22T19:32:22;37.67;;;25.73;;
13720;SDS011;6932;51.438;5.470;2023-02-22T19:34:54;37.47;;;25.60;;
13720;SDS011;6932;51.438;5.470;2023-02-22T19:37:26;37.50;;;24.93;;
13720;SDS011;6932;51.438;5.470;2023-02-22T19:39:58;35.27;;;24.13;;
13720;SDS011;6932;51.438;5.470;2023-02-22T19:42:25;35.10;;;23.90;;
13720;SDS011;6932;51.438;5.470;2023-02-22T19:44:51;34.60;;;23.00;;
13720;SDS011;6932;51.438;5.470;2023-02-22T19:47:17;33.07;;;22.87;;
13720;SDS011;6932;51.438;5.470;2023-02-22T19:49:43;35.53;;;23.83;;
13720;SDS011;6932;51.438;5.470;2023-02-22T19:52:09;34.50;;;23.90;;
13720;SDS011;6932;51.438;5.470;2023-02-22T19:54:35;34.50;;;23.37;;
13720;SDS011;6932;51.438;5.470;2023-02-22T19:57:00;36.73;;;23.57;;
13720;SDS011;6932;51.438;5.470;2023-02-22T19:59:26;32.93;;;22.73;;
13720;SDS011;6932;51.438;5.470;2023-02-22T20:01:53;34.03;;;22.87;;
13720;SDS011;6932;51.438;5.470;2023-02-22T20:04:20;32.33;;;22.73;;
13720;SDS011;6932;51.438;5.470;2023-02-22T20:06:48;29.77;;;21.77;;
13720;SDS011;6932;51.438;5.470;2023-02-22T20:09:19;30.27;;;22.13;;
13720;SDS011;6932;51.438;5.470;2023-02-22T20:11:51;30.10;;;20.43;;
13720;SDS011;6932;51.438;5.470;2023-02-22T20:14:20;27.77;;;19.93;;
13720;SDS011;6932;51.438;5.470;2023-02-22T20:16:50;29.47;;;20.60;;
13720;SDS011;6932;51.438;5.470;2023-02-22T20:19:17;28.07;;;19.70;;
13720;SDS011;6932;51.438;5.470;2023-02-22T20:21:46;25.67;;;18.33;;
13720;SDS011;6932;51.438;5.470;2023-02-22T20:24:12;26.93;;;18.37;;